Time;durP1;ratioP1;P1;durP2;ratioP2;P2;SDS_P1;SDS_P2;PMS_P1;PMS_P2;Temp;Humidity;BMP_temperature;BMP_pressure;BME280_temperature;BME280_humidity;BME280_pressure;Samples;Min_cycle;Max_cycle;Signal;HPM_P1;HPM_P2
2022/05/19 00:02:59;;;;;;;2.60;1.13;;;;;;;17.01;39.33;99861.25;5094285;28;20130;-66
2022/05/19 00:05:45;;;;;;;3.13;1.10;;;;;;;16.71;38.87;99858.22;5094587;28;20172;-65
2022/05/19 00:08:32;;;;;;;2.80;1.02;;;;;;;16.45;41.70;99868.19;5080112;28;20036;-66
2022/05/19 00:11:20;;;;;;;5.53;1.20;;;;;;;16.46;38.98;99869.84;5108302;28;20081;-66
2022/05/19 00:14:05;;;;;;;1.70;1.20;;;;;;;16.49;41.52;99869.63;5094053;28;20047;-65
2022/05/19 00:16:50;;;;;;;3.17;1.52;;;;;;;16.05;41.31;99875.50;5079565;28;20499;-66
2022/05/19 00:19:35;;;;;;;5.28;1.50;;;;;;;16.18;42.83;99871.91;5079634;28;20482;-66
2022/05/19 00:22:19;;;;;;;3.38;1.15;;;;;;;16.54;41.96;99863.97;5073478;28;20044;-65
2022/05/19 00:25:05;;;;;;;3.67;1.85;;;;;;;16.82;39.95;99860.06;5074447;28;20486;-66
2022/05/19 00:27:49;;;;;;;4.78;1.85;;;;;;;16.56;41.70;99865.56;5074612;28;20040;-66
2022/05/19 00:30:35;;;;;;;4.43;1.98;;;;;;;16.46;41.44;99864.56;5073636;28;20106;-66
2022/05/19 00:33:20;;;;;;;3.72;1.90;;;;;;;15.83;42.32;99863.81;5073263;28;20125;-66
2022/05/19 00:36:10;;;;;;;3.65;1.60;;;;;;;16.79;42.61;99857.66;5074657;28;20383;-65
2022/05/19 00:38:56;;;;;;;3.42;1.83;;;;;;;17.05;40.97;99865.34;5077893;28;20045;-67
2022/05/19 00:41:45;;;;;;;2.65;1.48;;;;;;;17.13;40.57;99867.44;5074551;28;20102;-66
2022/05/19 00:44:29;;;;;;;3.97;1.60;;;;;;;17.20;41.22;99870.44;5073998;28;20037;-66
2022/05/19 00:47:21;;;;;;;2.92;1.40;;;;;;;17.17;40.72;99860.91;5077363;28;20032;-66
2022/05/19 00:50:21;;;;;;;2.72;1.65;;;;;;;17.15;40.34;99864.66;5063498;28;20037;-66
2022/05/19 00:53:29;;;;;;;3.75;1.83;;;;;;;16.99;41.73;99856.06;5077581;28;20060;-66
2022/05/19 00:56:31;;;;;;;3.65;1.38;;;;;;;16.18;42.36;99856.06;5074136;28;20107;-65
2022/05/19 00:59:32;;;;;;;2.67;1.38;;;;;;;14.70;43.15;99854.13;5086406;28;20036;-65
2022/05/19 01:02:22;;;;;;;3.57;1.67;;;;;;;14.57;44.58;99851.47;5072587;28;20040;-66
2022/05/19 01:05:07;;;;;;;3.53;1.67;;;;;;;14.50;45.49;99853.69;5074406;28;20290;-66
2022/05/19 01:07:57;;;;;;;4.47;1.45;;;;;;;14.34;44.60;99845.97;5079904;28;20119;-66
2022/05/19 01:10:44;;;;;;;2.47;1.15;;;;;;;14.57;45.21;99854.13;5090187;28;20040;-66
2022/05/19 01:13:31;;;;;;;2.75;1.35;;;;;;;14.75;45.91;99849.38;5093679;28;20108;-66
2022/05/19 01:16:16;;;;;;;2.53;1.58;;;;;;;14.89;45.04;99849.28;5106257;28;20394;-65
2022/05/19 01:19:09;;;;;;;2.00;1.20;;;;;;;14.58;42.73;99858.44;5093499;28;20089;-65
2022/05/19 01:21:58;;;;;;;2.30;1.33;;;;;;;14.52;45.55;99847.38;5106622;28;20028;-66
2022/05/19 01:25:00;;;;;;;2.72;1.02;;;;;;;14.80;44.49;99849.94;5078281;28;20140;-65
2022/05/19 01:27:45;;;;;;;1.95;0.93;;;;;;;14.62;43.01;99850.19;5078490;28;20032;-66
2022/05/19 01:30:29;;;;;;;4.13;1.00;;;;;;;14.73;42.96;99841.56;5078250;28;20035;-66
2022/05/19 01:33:14;;;;;;;4.40;1.13;;;;;;;15.08;43.50;99845.34;5092600;28;20036;-66
2022/05/19 01:36:00;;;;;;;2.10;0.85;;;;;;;15.15;45.17;99843.97;5092771;28;20119;-66
2022/05/19 01:38:45;;;;;;;3.70;1.20;;;;;;;15.01;44.01;99844.94;5093600;28;20036;-65
2022/05/19 01:42:09;;;;;;;1.45;0.88;;;;;;;14.72;43.51;99839.03;5079649;28;20043;-66
2022/05/19 01:45:05;;;;;;;2.08;1.00;;;;;;;15.42;42.84;99838.63;5092430;28;20352;-66
2022/05/19 01:47:58;;;;;;;3.80;1.13;;;;;;;15.42;39.13;99843.91;5093354;28;20054;-65
2022/05/19 01:51:12;;;;;;;4.10;1.20;;;;;;;16.10;42.93;99852.22;5092192;28;20499;-65
2022/05/19 01:54:06;;;;;;;1.85;0.85;;;;;;;15.76;42.29;99846.75;5093720;28;20048;-65
2022/05/19 01:57:04;;;;;;;4.28;1.00;;;;;;;16.05;41.90;99851.69;5093468;28;20032;-66
2022/05/19 02:00:19;;;;;;;1.90;1.02;;;;;;;16.05;40.78;99850.84;5078296;28;20043;-65
2022/05/19 02:03:21;;;;;;;2.05;1.10;;;;;;;15.82;40.49;99845.44;5071196;28;20075;-66
2022/05/19 02:06:22;;;;;;;1.98;1.33;;;;;;;15.66;39.81;99851.00;5092196;28;20474;-65
2022/05/19 02:09:15;;;;;;;3.88;1.20;;;;;;;16.09;40.00;99852.31;5093024;28;20044;-65
2022/05/19 02:12:01;;;;;;;2.15;1.20;;;;;;;15.08;42.36;99839.25;5095644;28;20032;-65
2022/05/19 02:14:55;;;;;;;2.50;0.85;;;;;;;15.17;44.07;99840.38;5097067;28;20039;-66
2022/05/19 02:17:42;;;;;;;2.70;1.38;;;;;;;15.49;41.14;99850.41;5096858;28;20048;-65
2022/05/19 02:20:29;;;;;;;6.85;1.30;;;;;;;15.79;39.36;99840.38;5096988;28;20502;-65
2022/05/19 02:23:16;;;;;;;2.28;1.20;;;;;;;16.08;41.04;99846.19;5096871;28;20040;-64
2022/05/19 02:26:02;;;;;;;2.17;1.10;;;;;;;16.35;40.68;99844.22;5097136;28;20497;-65
2022/05/19 02:28:57;;;;;;;2.78;1.00;;;;;;;16.27;40.84;99842.19;5095938;28;20073;-68
2022/05/19 02:31:45;;;;;;;2.47;0.95;;;;;;;16.27;42.16;99839.53;5096740;28;20036;-65
2022/05/19 02:34:30;;;;;;;1.50;0.90;;;;;;;16.38;42.15;99838.72;5096809;28;20032;-64
2022/05/19 02:37:14;;;;;;;4.22;1.05;;;;;;;16.74;40.21;99839.47;5095556;28;20089;-66
2022/05/19 02:39:59;;;;;;;1.92;1.05;;;;;;;17.11;40.88;99837.56;5072736;28;20115;-66
2022/05/19 02:42:45;;;;;;;3.63;1.23;;;;;;;16.75;40.67;99835.88;5095249;28;20036;-65
2022/05/19 02:45:30;;;;;;;1.80;0.82;;;;;;;16.52;40.14;99844.75;5096492;28;20055;-66
2022/05/19 02:48:16;;;;;;;2.50;1.20;;;;;;;16.33;41.52;99841.69;5096817;28;20032;-66
2022/05/19 02:51:01;;;;;;;3.25;1.15;;;;;;;15.37;40.97;99838.97;5098039;28;20118;-66
2022/05/19 02:53:46;;;;;;;2.95;1.30;;;;;;;15.06;41.56;99831.44;5096193;28;20067;-65
2022/05/19 02:56:31;;;;;;;1.83;1.23;;;;;;;14.35;42.60;99839.75;5095344;28;20047;-65
2022/05/19 02:59:16;;;;;;;3.75;1.20;;;;;;;13.75;43.71;99838.34;5088937;28;20040;-65
2022/05/19 03:02:01;;;;;;;3.28;1.30;;;;;;;13.62;45.78;99840.94;5099976;28;20036;-65
2022/05/19 03:04:45;;;;;;;3.03;1.15;;;;;;;14.25;44.82;99831.59;5096319;28;20089;-65
2022/05/19 03:07:30;;;;;;;3.65;1.15;;;;;;;13.85;45.18;99829.84;5096148;28;20112;-65
2022/05/19 03:10:16;;;;;;;3.35;1.30;;;;;;;14.09;44.05;99837.91;5094590;28;20459;-66
2022/05/19 03:13:00;;;;;;;2.85;1.08;;;;;;;14.43;42.33;99833.97;5095707;28;20040;-64
2022/05/19 03:15:46;;;;;;;2.15;1.10;;;;;;;13.94;43.18;99838.94;5108061;28;20039;-65
2022/05/19 03:18:30;;;;;;;1.95;1.02;;;;;;;13.81;44.40;99847.63;5101361;28;20486;-65
2022/05/19 03:21:15;;;;;;;2.55;1.02;;;;;;;13.94;45.35;99845.03;5093420;28;20070;-65
2022/05/19 03:24:00;;;;;;;2.78;0.98;;;;;;;14.27;46.24;99840.25;5109105;28;20111;-67
2022/05/19 03:26:46;;;;;;;4.32;1.13;;;;;;;13.99;46.38;99850.00;5096094;28;20036;-65
2022/05/19 03:29:31;;;;;;;1.85;1.02;;;;;;;15.08;41.97;99836.63;5095855;28;20036;-65
2022/05/19 03:32:17;;;;;;;3.80;1.35;;;;;;;14.47;43.00;99838.94;5053018;28;20040;-66
2022/05/19 03:35:02;;;;;;;3.00;1.20;;;;;;;13.47;45.33;99845.34;5094489;28;20036;-66
2022/05/19 03:37:47;;;;;;;2.88;1.50;;;;;;;13.55;46.67;99834.34;5097944;28;20498;-66
2022/05/19 03:40:31;;;;;;;2.05;1.23;;;;;;;13.80;44.97;99835.41;5115117;28;20479;-66
2022/05/19 03:43:16;;;;;;;3.63;1.42;;;;;;;14.37;45.04;99841.34;5116120;28;20066;-66
2022/05/19 03:46:02;;;;;;;2.50;1.23;;;;;;;14.27;47.02;99845.53;5097665;28;20111;-67
2022/05/19 03:48:47;;;;;;;2.40;1.05;;;;;;;14.35;46.94;99832.69;5096024;28;20043;-66
2022/05/19 03:51:33;;;;;;;3.47;1.35;;;;;;;14.09;44.17;99834.41;5115418;28;20466;-65
2022/05/19 03:54:18;;;;;;;3.13;1.50;;;;;;;13.90;45.57;99836.50;5116081;28;20051;-66
2022/05/19 03:57:02;;;;;;;2.65;1.38;;;;;;;13.50;46.44;99831.13;5080988;28;20043;-66
2022/05/19 03:59:48;;;;;;;3.83;1.50;;;;;;;13.13;46.60;99834.31;5095845;28;20032;-66
2022/05/19 04:02:33;;;;;;;3.25;1.17;;;;;;;13.76;47.05;99833.91;5092470;28;20036;-66
2022/05/19 04:05:17;;;;;;;3.00;1.20;;;;;;;13.97;46.69;99830.84;5078636;28;20045;-65
2022/05/19 04:08:02;;;;;;;4.53;1.60;;;;;;;14.22;45.55;99843.22;5093015;28;20040;-66
2022/05/19 04:10:48;;;;;;;2.53;1.55;;;;;;;12.88;46.88;99838.44;5086703;28;20461;-66
2022/05/19 04:13:32;;;;;;;2.45;1.25;;;;;;;13.30;48.19;99843.81;5093880;28;20394;-65
2022/05/19 04:16:17;;;;;;;5.10;1.23;;;;;;;13.88;49.94;99845.44;5093980;28;20032;-66
2022/05/19 04:19:02;;;;;;;3.50;1.30;;;;;;;13.72;48.52;99842.97;5094751;28;20450;-67
2022/05/19 04:21:47;;;;;;;3.17;1.20;;;;;;;14.21;46.23;99841.53;5094183;28;20040;-66
2022/05/19 04:24:31;;;;;;;4.53;1.65;;;;;;;13.55;46.25;99840.47;5094178;28;20051;-67
2022/05/19 04:27:16;;;;;;;3.28;1.27;;;;;;;14.25;49.42;99843.00;5094717;28;20063;-67
2022/05/19 04:30:01;;;;;;;3.40;1.20;;;;;;;14.53;48.43;99838.50;5094291;28;20486;-67
2022/05/19 04:32:47;;;;;;;6.40;1.50;;;;;;;13.66;48.32;99850.31;5094147;28;20060;-67
2022/05/19 04:35:31;;;;;;;2.42;1.80;;;;;;;13.51;47.48;99840.78;5093238;28;20126;-66
2022/05/19 04:38:19;;;;;;;3.97;1.40;;;;;;;13.32;49.83;99839.25;5093173;28;20429;-68
2022/05/19 04:41:05;;;;;;;3.70;1.63;;;;;;;14.78;46.41;99841.25;5094197;28;20051;-68
2022/05/19 04:43:51;;;;;;;5.03;2.17;;;;;;;14.29;49.75;99841.00;5093999;28;20047;-67
2022/05/19 04:46:35;;;;;;;10.20;2.40;;;;;;;16.30;48.26;99838.44;5093276;28;20394;-60
2022/05/19 04:49:21;;;;;;;5.93;1.60;;;;;;;16.43;42.37;99846.28;5095707;28;20482;-70
2022/05/19 04:52:06;;;;;;;9.07;2.30;;;;;;;15.20;44.40;99842.78;5080042;28;20352;-69
2022/05/19 04:54:52;;;;;;;5.28;2.00;;;;;;;15.30;45.82;99841.19;5094199;28;20093;-66
2022/05/19 04:57:37;;;;;;;3.15;1.80;;;;;;;14.71;45.70;99840.81;5078730;28;20118;-63
2022/05/19 05:00:22;;;;;;;6.63;1.80;;;;;;;15.22;48.44;99838.25;5092884;28;20040;-68
2022/05/19 05:03:07;;;;;;;4.97;1.60;;;;;;;14.39;47.92;99841.25;5093436;28;20109;-67
2022/05/19 05:05:52;;;;;;;6.50;2.30;;;;;;;14.86;46.01;99838.09;5093981;28;20051;-65
2022/05/19 05:08:37;;;;;;;7.10;1.45;;;;;;;14.66;48.04;99843.78;5107134;28;20093;-65
2022/05/19 05:11:23;;;;;;;4.65;1.67;;;;;;;14.99;45.45;99838.94;5093620;28;20032;-65
2022/05/19 05:14:08;;;;;;;5.30;2.13;;;;;;;15.47;44.96;99845.25;5092780;28;20043;-66
2022/05/19 05:16:54;;;;;;;3.85;1.52;;;;;;;15.49;48.57;99840.72;5093301;28;20040;-65
2022/05/19 05:19:40;;;;;;;7.03;1.77;;;;;;;15.43;45.53;99845.59;5091751;28;20360;-65
2022/05/19 05:22:26;;;;;;;3.28;1.92;;;;;;;16.10;45.06;99849.56;5092561;28;20402;-65
2022/05/19 05:25:13;;;;;;;3.38;1.77;;;;;;;15.57;46.65;99845.44;5092769;28;20128;-65
2022/05/19 05:28:00;;;;;;;4.05;1.50;;;;;;;17.26;43.36;99845.25;5092845;28;20040;-65
2022/05/19 05:30:46;;;;;;;4.15;2.13;;;;;;;16.07;43.44;99852.44;5093428;28;20040;-65
2022/05/19 05:33:38;;;;;;;4.30;1.40;;;;;;;15.87;45.38;99854.72;5090154;28;20032;-67
2022/05/19 05:36:22;;;;;;;4.15;1.50;;;;;;;15.94;46.36;99851.63;5091784;28;20040;-65
2022/05/19 05:39:07;;;;;;;5.88;2.00;;;;;;;14.85;45.41;99853.06;5101407;28;20046;-65
2022/05/19 05:41:51;;;;;;;5.25;1.58;;;;;;;15.26;46.67;99858.19;5104990;28;20066;-66
2022/05/19 05:44:36;;;;;;;10.18;2.38;;;;;;;15.76;45.17;99860.81;5092089;28;20040;-66
2022/05/19 05:47:21;;;;;;;4.30;2.33;;;;;;;14.78;46.67;99865.84;5093854;28;20081;-66
2022/05/19 05:50:06;;;;;;;3.13;1.98;;;;;;;15.37;46.41;99865.38;5096724;28;20036;-64
2022/05/19 05:52:50;;;;;;;3.65;1.42;;;;;;;15.81;45.58;99865.75;5082356;28;20131;-63
2022/05/19 05:55:41;;;;;;;2.40;1.52;;;;;;;16.04;44.35;99883.53;5111012;28;20040;-63
2022/05/19 05:58:26;;;;;;;3.50;1.92;;;;;;;15.35;47.89;99878.69;5093672;28;20115;-62
2022/05/19 06:01:13;;;;;;;3.10;1.80;;;;;;;15.82;46.06;99882.41;5107170;28;20485;-65
2022/05/19 06:03:57;;;;;;;7.57;1.48;;;;;;;16.28;45.55;99872.94;5096967;28;20400;-68
2022/05/19 06:06:45;;;;;;;4.97;2.08;;;;;;;15.72;44.89;99875.19;5111440;28;20032;-67
2022/05/19 06:09:30;;;;;;;7.03;2.25;;;;;;;15.21;46.72;99868.25;5098082;28;20386;-63
2022/05/19 06:12:15;;;;;;;3.72;1.98;;;;;;;14.20;49.90;99873.25;5100368;28;20024;-69
2022/05/19 06:15:00;;;;;;;4.38;2.05;;;;;;;14.02;50.87;99878.75;5101577;28;20036;-68
2022/05/19 06:17:44;;;;;;;2.05;1.50;;;;;;;15.43;48.22;99870.19;5092089;28;20036;-67
2022/05/19 06:20:29;;;;;;;5.68;1.48;;;;;;;16.62;45.80;99870.38;5072032;28;20360;-66
2022/05/19 06:23:16;;;;;;;3.95;1.75;;;;;;;16.62;44.78;99880.94;5072330;28;20053;-67
2022/05/19 06:26:03;;;;;;;5.30;2.47;;;;;;;16.69;44.54;99873.38;5086719;28;20040;-66
2022/05/19 06:28:48;;;;;;;4.32;2.20;;;;;;;16.85;44.21;99873.03;5105180;28;20497;-67
2022/05/19 06:31:33;;;;;;;4.50;1.70;;;;;;;16.48;45.76;99879.34;5112172;28;20032;-67
2022/05/19 06:34:18;;;;;;;3.25;1.90;;;;;;;16.68;45.66;99870.88;5112260;28;20076;-66
2022/05/19 06:37:03;;;;;;;4.57;2.20;;;;;;;16.26;45.75;99877.47;5113262;28;20044;-66
2022/05/19 06:39:48;;;;;;;10.68;2.20;;;;;;;16.65;44.58;99871.94;5112268;28;20061;-67
2022/05/19 06:42:35;;;;;;;3.15;2.00;;;;;;;17.15;43.68;99862.88;5112932;28;20039;-66
2022/05/19 06:45:24;;;;;;;4.35;2.08;;;;;;;17.10;44.23;99875.63;5102392;28;20383;-66
2022/05/19 06:48:09;;;;;;;3.75;1.73;;;;;;;16.80;44.84;99864.63;5092272;28;20040;-67
2022/05/19 06:50:55;;;;;;;3.67;2.08;;;;;;;17.63;43.04;99860.03;5097665;28;20532;-66
2022/05/19 06:53:41;;;;;;;3.97;2.10;;;;;;;17.28;43.75;99870.66;5091752;28;20048;-67
2022/05/19 06:56:27;;;;;;;7.90;2.45;;;;;;;16.82;44.94;99869.78;5091820;28;20044;-66
2022/05/19 06:59:11;;;;;;;4.07;2.30;;;;;;;17.39;44.17;99864.50;5096186;28;20043;-67
2022/05/19 07:02:00;;;;;;;4.93;2.17;;;;;;;17.80;43.73;99866.56;5094977;28;20067;-67
2022/05/19 07:04:44;;;;;;;4.95;2.00;;;;;;;18.30;42.80;99873.13;5095825;28;20383;-67
2022/05/19 07:07:29;;;;;;;8.65;2.03;;;;;;;18.19;42.55;99871.41;5095125;28;20059;-66
2022/05/19 07:10:22;;;;;;;3.70;2.00;;;;;;;18.22;42.38;99857.88;5095100;28;20038;-66
2022/05/19 07:13:07;;;;;;;4.32;2.05;;;;;;;18.34;41.75;99877.22;5096065;28;20475;-66
2022/05/19 07:15:51;;;;;;;5.38;2.30;;;;;;;17.95;42.33;99875.91;5095008;28;20387;-67
2022/05/19 07:18:36;;;;;;;3.17;2.08;;;;;;;18.31;42.20;99862.41;5094890;28;20036;-66
2022/05/19 07:21:21;;;;;;;6.65;2.10;;;;;;;18.20;42.76;99865.97;5052618;28;20093;-68
2022/05/19 07:24:06;;;;;;;6.00;2.47;;;;;;;18.64;41.75;99856.19;5094737;28;20043;-67
2022/05/19 07:26:54;;;;;;;4.68;1.85;;;;;;;18.68;41.74;99842.53;5095753;28;20173;-67
2022/05/19 07:29:40;;;;;;;3.17;1.80;;;;;;;18.39;43.06;99864.44;5080373;28;20044;-66
2022/05/19 07:32:25;;;;;;;4.18;2.05;;;;;;;18.68;42.37;99854.97;5095650;28;20173;-68
2022/05/19 07:35:13;;;;;;;7.15;2.15;;;;;;;18.42;41.25;99866.81;5080654;28;20040;-67
2022/05/19 07:37:57;;;;;;;4.03;1.98;;;;;;;18.56;41.34;99856.84;5094225;28;20089;-67
2022/05/19 07:40:43;;;;;;;3.78;1.83;;;;;;;18.36;40.42;99874.44;5095445;28;20070;-66
2022/05/19 07:43:37;;;;;;;2.13;1.23;;;;;;;19.02;37.11;99853.84;5094657;28;20063;-66
2022/05/19 07:46:22;;;;;;;2.78;0.93;;;;;;;18.89;34.92;99870.00;5094527;28;20044;-68
2022/05/19 07:49:07;;;;;;;3.42;0.95;;;;;;;19.29;34.24;99855.09;5094303;28;20036;-67
2022/05/19 07:51:52;;;;;;;1.92;0.90;;;;;;;19.24;33.78;99850.19;5095154;28;20054;-68
2022/05/19 07:54:38;;;;;;;1.25;0.85;;;;;;;19.44;33.51;99851.06;5088092;28;20434;-67
2022/05/19 07:57:25;;;;;;;1.80;1.13;;;;;;;19.96;32.96;99862.44;5073704;28;20115;-68
2022/05/19 08:00:10;;;;;;;5.43;0.90;;;;;;;20.42;33.10;99840.59;5073907;28;20033;-68
2022/05/19 08:02:58;;;;;;;2.08;0.80;;;;;;;20.40;32.50;99853.22;5073649;28;20396;-68
2022/05/19 08:05:43;;;;;;;2.08;0.85;;;;;;;19.85;32.55;99862.56;5074308;28;20094;-68
2022/05/19 08:08:28;;;;;;;2.15;0.80;;;;;;;19.94;32.59;99854.59;5072725;28;20041;-68
2022/05/19 08:11:12;;;;;;;7.70;1.20;;;;;;;20.46;32.41;99855.31;5059403;28;20036;-69
2022/05/19 08:17:00;;;;;;;3.45;0.90;;;;;;;20.89;32.06;99873.53;5073943;28;20044;-68
2022/05/19 08:19:47;;;;;;;2.83;0.77;;;;;;;20.79;31.65;99860.25;5059507;28;20098;-68
2022/05/19 08:22:32;;;;;;;3.03;1.30;;;;;;;20.99;31.41;99854.91;5074637;28;20037;-68
2022/05/19 08:25:17;;;;;;;2.35;0.77;;;;;;;21.09;30.50;99865.47;5074666;28;20044;-68
2022/05/19 08:28:02;;;;;;;4.75;1.00;;;;;;;20.89;30.51;99874.34;5074427;28;20040;-67
2022/05/19 08:30:50;;;;;;;5.55;1.13;;;;;;;20.84;30.29;99863.31;5073525;28;20044;-67
2022/05/19 08:33:37;;;;;;;4.82;0.82;;;;;;;21.08;29.53;99871.81;5074425;28;20043;-68
2022/05/19 08:36:25;;;;;;;1.15;0.60;;;;;;;21.36;29.00;99847.81;5073000;28;20471;-68
2022/05/19 08:39:11;;;;;;;3.25;0.60;;;;;;;21.15;29.07;99836.44;5083600;28;20090;-68
2022/05/19 08:42:01;;;;;;;2.97;0.68;;;;;;;21.45;28.08;99870.06;5072080;28;20033;-68
2022/05/19 08:44:52;;;;;;;2.17;0.60;;;;;;;21.45;29.01;99854.06;5072331;28;20044;-67
2022/05/19 08:47:37;;;;;;;3.13;0.85;;;;;;;21.75;27.84;99852.91;5077153;28;20036;-68
2022/05/19 08:50:31;;;;;;;2.35;0.80;;;;;;;21.80;27.65;99856.97;5075629;28;20040;-67
2022/05/19 08:53:16;;;;;;;2.08;0.75;;;;;;;21.77;28.46;99845.59;5085016;28;20052;-68
2022/05/19 08:56:32;;;;;;;1.50;0.73;;;;;;;22.45;27.55;99846.97;5093840;28;20119;-68
2022/05/19 08:59:54;;;;;;;2.50;0.93;;;;;;;21.76;27.77;99832.38;5090773;28;20429;-68
2022/05/19 09:02:54;;;;;;;3.03;0.95;;;;;;;21.92;27.85;99853.06;5089862;28;20420;-68
2022/05/19 09:06:13;;;;;;;1.92;0.75;;;;;;;22.07;27.66;99837.34;5092227;28;20028;-69
2022/05/19 09:09:26;;;;;;;1.58;0.80;;;;;;;22.56;26.66;99833.34;5091362;28;20047;-68
2022/05/19 09:12:18;;;;;;;3.92;0.80;;;;;;;21.96;25.68;99870.44;5087504;28;20032;-68
2022/05/19 09:15:07;;;;;;;2.25;0.77;;;;;;;21.93;26.34;99821.91;5073208;28;20130;-69
2022/05/19 09:17:52;;;;;;;3.47;1.15;;;;;;;22.62;26.19;99843.44;5096606;28;20050;-68
2022/05/19 09:20:52;;;;;;;1.95;0.90;;;;;;;22.23;26.30;99846.50;5091431;28;20036;-68
2022/05/19 09:23:40;;;;;;;1.55;0.80;;;;;;;22.62;25.13;99823.94;5075190;28;20032;-68
2022/05/19 09:26:43;;;;;;;4.82;1.52;;;;;;;22.78;25.23;99836.53;5091064;28;20036;-68
2022/05/19 09:29:37;;;;;;;1.70;1.15;;;;;;;22.51;25.26;99806.28;5091448;28;20028;-68
2022/05/19 09:32:29;;;;;;;1.33;0.73;;;;;;;23.61;25.02;99807.41;5075680;28;21506;-67
2022/05/19 09:35:14;;;;;;;1.52;0.70;;;;;;;23.75;24.74;99815.75;5091649;28;20485;-66
2022/05/19 09:38:03;;;;;;;4.93;0.90;;;;;;;23.82;24.45;99808.75;5089449;28;20036;-69
2022/05/19 09:40:48;;;;;;;1.60;0.55;;;;;;;23.53;24.28;99828.78;5091245;28;20039;-68
2022/05/19 09:43:39;;;;;;;1.92;0.60;;;;;;;23.87;24.34;99808.25;5103186;28;20109;-67
2022/05/19 09:46:39;;;;;;;1.15;0.50;;;;;;;23.56;23.96;99816.91;5091976;28;20040;-67
2022/05/19 09:49:31;;;;;;;2.38;0.70;;;;;;;23.67;24.36;99797.03;5090865;28;20071;-67
2022/05/19 09:52:21;;;;;;;1.60;0.47;;;;;;;23.40;23.52;99793.66;5093078;28;20048;-66
2022/05/19 09:55:09;;;;;;;1.65;0.50;;;;;;;23.98;24.04;99799.88;5092503;28;20048;-70
2022/05/19 09:57:58;;;;;;;1.27;0.43;;;;;;;23.49;23.07;99824.75;5093151;28;20414;-66
2022/05/19 10:00:45;;;;;;;5.18;0.80;;;;;;;23.46;24.10;99779.63;5091296;28;20342;-73
2022/05/19 10:03:36;;;;;;;1.35;0.55;;;;;;;23.90;23.52;99794.53;5091344;28;20425;-73
2022/05/19 10:06:23;;;;;;;;;;;;;;;24.14;23.86;99786.66;5092170;28;20039;-72
2022/05/19 10:09:14;;;;;;;2.38;0.60;;;;;;;24.46;23.71;99799.19;5091185;28;19923;-72
2022/05/19 10:12:13;;;;;;;7.25;0.80;;;;;;;24.43;24.25;99782.63;5088779;28;20416;-69
2022/05/19 10:15:11;;;;;;;4.50;0.50;;;;;;;24.10;23.81;99800.38;5102071;28;20047;-73
2022/05/19 10:18:13;;;;;;;12.25;1.10;;;;;;;24.91;23.04;99788.00;5101610;28;20060;-76
2022/05/19 10:21:34;;;;;;;1.33;0.70;;;;;;;24.81;22.62;99790.00;5090547;28;20033;-78
2022/05/19 10:24:48;;;;;;;1.38;0.63;;;;;;;24.77;22.61;99810.13;5083915;28;20044;-60
2022/05/19 10:31:37;;;;;;;4.60;0.98;;;;;;;25.59;21.67;99782.03;5072528;28;20117;-75
2022/05/19 10:34:40;;;;;;;1.20;0.60;;;;;;;24.95;21.60;99762.53;5075169;28;20254;-73
2022/05/19 10:37:38;;;;;;;2.15;0.90;;;;;;;24.86;22.36;99766.22;5093634;28;20483;-74
2022/05/19 10:40:51;;;;;;;2.30;0.65;;;;;;;25.10;21.46;99757.22;5076024;28;20113;-73
2022/05/19 10:44:00;;;;;;;1.10;0.70;;;;;;;25.42;20.63;99751.00;5080150;28;20469;-73
2022/05/19 10:47:05;;;;;;;2.60;0.70;;;;;;;25.43;19.99;99752.66;5096743;28;20498;-72
2022/05/19 10:50:08;;;;;;;1.63;0.73;;;;;;;25.17;20.14;99733.25;5109294;28;20043;-72
2022/05/19 10:53:04;;;;;;;3.42;0.80;;;;;;;25.46;20.77;99739.72;5094838;28;20060;-73
2022/05/19 10:56:10;;;;;;;5.32;0.77;;;;;;;25.03;20.77;99745.56;5074396;28;20119;-76
2022/05/19 10:59:15;;;;;;;1.58;0.65;;;;;;;25.32;20.76;99727.94;5075552;28;20377;-75
2022/05/19 11:02:24;;;;;;;5.20;0.75;;;;;;;25.93;20.81;99736.19;5075370;28;20047;-75
2022/05/19 11:05:28;;;;;;;3.03;0.40;;;;;;;25.90;19.63;99734.69;5075324;28;20047;-75
2022/05/19 11:08:27;;;;;;;4.97;0.32;;;;;;;25.86;20.37;99728.03;5084544;28;20629;-74
2022/05/19 11:11:51;;;;;;;4.28;0.70;;;;;;;25.90;20.50;99718.59;5107514;28;20051;-74
2022/05/19 11:14:48;;;;;;;1.55;0.75;;;;;;;25.58;20.75;99723.22;5074683;28;20052;-76
2022/05/19 11:17:49;;;;;;;0.90;0.60;;;;;;;26.37;20.01;99712.25;5074781;28;20041;-68
2022/05/19 11:20:53;;;;;;;1.83;0.40;;;;;;;26.03;20.26;99717.94;5074730;28;20124;-68
2022/05/19 11:23:50;;;;;;;1.92;0.50;;;;;;;25.88;19.16;99717.13;5075759;28;20040;-67
2022/05/19 11:26:56;;;;;;;0.98;0.60;;;;;;;26.13;19.40;99703.44;5075295;28;20067;-67
2022/05/19 11:29:47;;;;;;;0.38;0.30;;;;;;;25.86;18.86;99724.50;5074862;28;20036;-67
2022/05/19 11:32:37;;;;;;;1.50;0.50;;;;;;;25.77;19.63;99713.84;5074656;28;20052;-67
2022/05/19 11:35:30;;;;;;;3.83;0.50;;;;;;;26.26;19.20;99708.97;5074632;28;20036;-67
2022/05/19 11:38:21;;;;;;;3.72;0.50;;;;;;;26.01;19.12;99705.75;5075040;28;20132;-67
2022/05/19 11:41:19;;;;;;;0.82;0.50;;;;;;;26.07;19.21;99696.94;5074193;28;20036;-66
2022/05/19 11:44:25;;;;;;;1.55;0.55;;;;;;;25.96;19.34;99684.84;5073325;28;20051;-68
2022/05/19 11:55:12;;;;;;;2.40;0.60;;;;;;;26.27;19.81;99699.94;5094103;28;20044;-67
2022/05/19 11:56:49;;;;;;;2.22;0.60;;;;;;;26.47;18.93;99669.00;5093943;28;20044;-68
2022/05/19 11:59:37;;;;;;;2.63;0.43;;;;;;;26.59;18.95;99674.72;5092869;28;20081;-66
2022/05/19 12:02:33;;;;;;;1.35;0.38;;;;;;;26.97;18.78;99662.91;5093751;28;20032;-65
2022/05/19 12:05:36;;;;;;;4.45;0.60;;;;;;;26.45;19.34;99666.50;5094243;28;20073;-65
2022/05/19 12:08:41;;;;;;;5.65;0.68;;;;;;;27.80;18.85;99675.03;5093649;28;20043;-63
2022/05/19 12:11:30;;;;;;;5.43;0.70;;;;;;;28.41;17.88;99665.44;5090316;28;20113;-65
2022/05/19 12:14:24;;;;;;;1.27;0.43;;;;;;;26.91;18.40;99662.66;5093060;28;20086;-67
2022/05/19 12:17:15;;;;;;;3.15;0.77;;;;;;;27.34;17.54;99655.63;5094184;28;20494;-66
2022/05/19 12:20:33;;;;;;;0.45;0.20;;;;;;;26.98;18.35;99651.97;5107728;28;20048;-64
2022/05/19 12:23:20;;;;;;;2.70;0.40;;;;;;;26.80;18.94;99645.19;5077665;28;20874;-67
2022/05/19 12:26:19;;;;;;;0.43;0.22;;;;;;;27.42;18.40;99644.75;5093223;28;20036;-63
2022/05/19 12:29:29;;;;;;;1.45;0.65;;;;;;;27.92;17.68;99638.47;5078902;28;20036;-64
2022/05/19 12:32:27;;;;;;;3.10;0.50;;;;;;;27.10;18.00;99636.22;5094203;28;20047;-66
2022/05/19 12:35:16;;;;;;;1.42;0.40;;;;;;;27.61;17.67;99638.88;5093856;28;20039;-66
2022/05/19 12:38:07;;;;;;;1.42;0.50;;;;;;;27.28;17.73;99633.06;5094131;28;20036;-69
2022/05/19 12:40:57;;;;;;;4.70;0.57;;;;;;;27.12;18.41;99622.56;5093958;28;20040;-66
2022/05/19 12:43:45;;;;;;;1.02;0.68;;;;;;;27.47;18.64;99627.19;5093446;28;20131;-67
2022/05/19 12:46:33;;;;;;;1.75;0.32;;;;;;;27.52;18.09;99630.09;5093793;28;20040;-65
2022/05/19 12:49:25;;;;;;;3.00;0.60;;;;;;;27.79;18.30;99635.72;5072438;28;20115;-69
2022/05/19 12:52:18;;;;;;;1.95;0.40;;;;;;;27.43;17.53;99638.34;5090446;28;20444;-69
2022/05/19 12:55:27;;;;;;;2.40;0.50;;;;;;;26.97;18.32;99638.72;5092950;28;20047;-69
2022/05/19 12:58:34;;;;;;;1.48;0.40;;;;;;;26.77;17.99;99637.53;5064861;28;20048;-68
2022/05/19 13:01:37;;;;;;;2.40;0.47;;;;;;;26.83;18.29;99616.28;5076764;28;20117;-69
2022/05/19 13:04:36;;;;;;;1.95;0.57;;;;;;;26.99;18.74;99631.31;5086351;28;20498;-69
2022/05/19 13:07:28;;;;;;;2.72;0.90;;;;;;;26.74;18.41;99629.84;5091536;28;20040;-69
2022/05/19 13:10:26;;;;;;;3.03;0.70;;;;;;;27.18;18.68;99622.63;5093096;28;20036;-71
2022/05/19 13:13:36;;;;;;;3.58;0.60;;;;;;;27.73;18.23;99625.75;5092299;28;20044;-68
2022/05/19 13:16:31;;;;;;;1.15;0.60;;;;;;;27.29;18.43;99607.81;5092394;28;20039;-68
2022/05/19 13:19:37;;;;;;;3.05;0.60;;;;;;;26.86;18.11;99637.41;5093119;28;20036;-68
2022/05/19 13:22:29;;;;;;;1.33;0.70;;;;;;;26.53;18.28;99611.84;5093564;28;20044;-69
2022/05/19 13:25:13;;;;;;;3.30;0.60;;;;;;;26.46;19.53;99616.31;5092442;28;20495;-68
2022/05/19 13:31:24;;;;;;;4.57;1.10;;;;;;;26.43;19.43;99607.63;5092280;28;20036;-69
2022/05/19 13:34:14;;;;;;;2.53;1.00;;;;;;;26.65;19.20;99602.25;5092509;28;20032;-69
2022/05/19 13:37:00;;;;;;;2.13;0.50;;;;;;;26.75;19.08;99593.06;5093422;28;20040;-68
2022/05/19 13:39:44;;;;;;;1.52;0.70;;;;;;;27.14;19.24;99593.66;5078329;28;20040;-68
2022/05/19 13:42:29;;;;;;;3.95;0.80;;;;;;;26.84;19.44;99585.69;5092621;28;20462;-69